createdAt,value
2017-08-07T00:00:27.866Z,16.70
2017-08-07T00:02:56.096Z,16.70
2017-08-07T00:05:23.553Z,16.60
2017-08-07T00:07:51.008Z,16.60
2017-08-07T00:10:18.565Z,16.70
2017-08-07T00:12:46.033Z,16.70
2017-08-07T00:15:13.491Z,16.60
2017-08-07T00:17:40.957Z,16.60
2017-08-07T00:20:08.417Z,16.50
2017-08-07T00:22:35.874Z,16.50
2017-08-07T00:25:03.345Z,16.50
2017-08-07T00:27:30.817Z,16.50
2017-08-07T00:29:59.057Z,16.30
2017-08-07T00:32:26.590Z,16.30
2017-08-07T00:34:54.113Z,16.30
2017-08-07T00:37:22.439Z,16.40
2017-08-07T00:39:49.897Z,16.40
2017-08-07T00:42:17.366Z,16.40
2017-08-07T00:44:44.847Z,16.30
2017-08-07T00:47:12.310Z,16.30
2017-08-07T00:49:40.587Z,16.20
2017-08-07T00:52:08.985Z,16.20
2017-08-07T00:54:36.525Z,16.20
2017-08-07T00:57:04.773Z,16.20
2017-08-07T00:59:32.241Z,16.20
2017-08-07T01:02:00.402Z,16.10
2017-08-07T01:04:27.861Z,16.10
2017-08-07T01:06:55.662Z,16.10
2017-08-07T01:09:23.129Z,16.00
2017-08-07T01:11:50.589Z,15.90
2017-08-07T01:14:18.045Z,15.90
2017-08-07T01:16:45.553Z,15.90
2017-08-07T01:19:13.032Z,15.90
2017-08-07T01:21:40.541Z,15.90
2017-08-07T01:24:08.011Z,15.90
2017-08-07T01:26:35.478Z,15.90
2017-08-07T01:29:02.944Z,15.80
2017-08-07T01:31:30.397Z,15.80
2017-08-07T01:33:57.876Z,15.80
2017-08-07T01:36:26.101Z,15.70
2017-08-07T01:38:53.565Z,15.70
2017-08-07T01:41:21.044Z,15.70
2017-08-07T01:43:48.497Z,15.70
2017-08-07T01:46:15.975Z,15.70
2017-08-07T01:48:44.217Z,15.60
2017-08-07T01:51:11.691Z,15.60
2017-08-07T01:53:39.144Z,15.60
2017-08-07T01:56:06.614Z,15.50
2017-08-07T01:58:34.072Z,15.50
2017-08-07T02:01:02.307Z,15.50
2017-08-07T02:03:29.769Z,15.50
2017-08-07T02:05:57.242Z,15.50
2017-08-07T02:08:24.705Z,15.50
2017-08-07T02:10:52.169Z,15.50
2017-08-07T02:13:20.397Z,15.50
2017-08-07T02:15:47.882Z,15.50
2017-08-07T02:18:15.346Z,15.50
2017-08-07T02:20:42.809Z,15.50
2017-08-07T02:23:10.312Z,15.50
2017-08-07T02:25:37.788Z,15.40
2017-08-07T02:28:05.382Z,15.40
2017-08-07T02:30:32.851Z,15.30
2017-08-07T02:33:01.082Z,15.20
2017-08-07T02:35:28.550Z,15.20
2017-08-07T02:37:56.012Z,15.20
2017-08-07T02:40:23.609Z,15.20
2017-08-07T02:42:51.107Z,15.20
2017-08-07T02:45:18.566Z,15.30
2017-08-07T02:47:46.118Z,15.20
2017-08-07T02:50:13.637Z,15.30
2017-08-07T02:52:41.940Z,15.20
2017-08-07T02:55:09.399Z,15.20
2017-08-07T02:57:36.866Z,15.20
2017-08-07T03:00:04.330Z,15.10
2017-08-07T03:02:31.929Z,15.20
2017-08-07T03:05:00.384Z,15.10
2017-08-07T03:07:27.841Z,15.10
2017-08-07T03:09:55.322Z,15.10
2017-08-07T03:12:23.545Z,15.00
2017-08-07T03:14:51.100Z,15.00
2017-08-07T03:17:18.566Z,15.00
2017-08-07T03:19:46.019Z,15.00
2017-08-07T03:22:13.484Z,14.90
2017-08-07T03:24:40.941Z,14.80
2017-08-07T03:27:08.409Z,14.90
2017-08-07T03:29:35.968Z,14.80
2017-08-07T03:32:03.432Z,14.80
2017-08-07T03:34:30.914Z,14.80
2017-08-07T03:36:59.154Z,14.80
2017-08-07T03:39:26.612Z,14.70
2017-08-07T03:41:54.093Z,14.70
2017-08-07T03:44:21.553Z,14.70
2017-08-07T03:46:49.789Z,14.70
2017-08-07T03:49:17.381Z,14.70
2017-08-07T03:51:44.854Z,14.70
2017-08-07T03:54:13.094Z,14.70
2017-08-07T03:56:40.657Z,14.70
2017-08-07T03:59:08.133Z,14.80
2017-08-07T04:01:36.360Z,14.70
2017-08-07T04:04:03.835Z,14.70
2017-08-07T04:06:31.305Z,14.80
2017-08-07T04:08:58.765Z,14.80
2017-08-07T04:11:26.237Z,14.80
2017-08-07T04:13:53.681Z,14.70
2017-08-07T04:16:21.165Z,14.70
2017-08-07T04:18:49.389Z,14.60
2017-08-07T04:21:16.860Z,14.60
2017-08-07T04:23:44.341Z,14.70
2017-08-07T04:26:12.573Z,14.70
2017-08-07T04:28:40.058Z,14.70
2017-08-07T04:31:07.533Z,14.60
2017-08-07T04:33:35.758Z,14.60
2017-08-07T04:36:03.230Z,14.60
2017-08-07T04:38:30.685Z,14.60
2017-08-07T04:40:58.161Z,14.70
2017-08-07T04:43:25.706Z,14.80
2017-08-07T04:45:53.181Z,14.80
2017-08-07T04:48:20.646Z,14.80
2017-08-07T04:50:48.268Z,14.70
2017-08-07T04:53:15.777Z,14.60
2017-08-07T04:55:44.213Z,14.60
2017-08-07T04:58:11.692Z,14.50
2017-08-07T05:00:39.146Z,14.50
2017-08-07T05:03:06.618Z,14.40
2017-08-07T05:05:34.837Z,14.40
2017-08-07T05:08:02.311Z,14.40
2017-08-07T05:10:29.793Z,14.40
2017-08-07T05:12:57.254Z,14.40
2017-08-07T05:15:24.712Z,14.50
2017-08-07T05:17:53.477Z,14.50
2017-08-07T05:20:20.925Z,14.50
2017-08-07T05:22:48.413Z,14.60
2017-08-07T05:25:16.638Z,14.60
2017-08-07T05:27:44.121Z,14.60
2017-08-07T05:30:11.726Z,14.60
2017-08-07T05:32:39.197Z,14.70
2017-08-07T05:35:07.573Z,14.70
2017-08-07T05:37:35.041Z,14.70
2017-08-07T05:40:02.516Z,14.80
2017-08-07T05:42:29.992Z,14.80
2017-08-07T05:44:57.462Z,14.90
2017-08-07T05:47:25.686Z,15.10
2017-08-07T05:49:53.149Z,15.00
2017-08-07T05:52:20.664Z,15.10
2017-08-07T05:54:49.019Z,15.20
2017-08-07T05:57:16.541Z,15.20
2017-08-07T05:59:44.000Z,15.20
2017-08-07T06:02:11.473Z,15.30
2017-08-07T06:04:38.933Z,15.40
2017-08-07T06:07:06.404Z,15.40
2017-08-07T06:09:33.885Z,15.50
2017-08-07T06:12:02.108Z,15.60
2017-08-07T06:14:29.574Z,15.60
2017-08-07T06:16:57.030Z,15.60
2017-08-07T06:19:24.513Z,15.70
2017-08-07T06:21:52.745Z,15.80
2017-08-07T06:24:20.200Z,15.80
2017-08-07T06:26:47.804Z,15.90
2017-08-07T06:29:15.261Z,16.00
2017-08-07T06:31:43.502Z,16.10
2017-08-07T06:34:10.961Z,16.10
2017-08-07T06:36:38.439Z,16.10
2017-08-07T06:39:06.110Z,16.20
2017-08-07T06:41:33.596Z,16.30
2017-08-07T06:44:01.082Z,16.40
2017-08-07T06:46:29.794Z,16.50
2017-08-07T06:48:57.395Z,16.60
2017-08-07T06:51:25.598Z,16.60
2017-08-07T06:53:53.053Z,16.60
2017-08-07T06:56:21.261Z,16.60
2017-08-07T06:58:48.746Z,16.70
2017-08-07T07:01:16.971Z,17.00
2017-08-07T07:03:44.428Z,16.90
2017-08-07T07:06:11.912Z,17.10
2017-08-07T07:08:39.378Z,17.10
2017-08-07T07:11:07.641Z,17.30
2017-08-07T07:13:35.119Z,17.30
2017-08-07T07:16:03.357Z,17.30
2017-08-07T07:18:30.841Z,17.30
2017-08-07T07:20:59.084Z,17.40
2017-08-07T07:23:26.548Z,17.30
2017-08-07T07:25:54.625Z,17.50
2017-08-07T07:28:22.113Z,17.70
2017-08-07T07:30:50.545Z,17.70
2017-08-07T07:33:18.016Z,17.70
2017-08-07T07:35:45.485Z,17.80
2017-08-07T07:38:12.970Z,18.00
2017-08-07T07:40:40.432Z,18.10
2017-08-07T07:43:07.893Z,18.30
2017-08-07T07:45:35.525Z,18.40
2017-08-07T07:48:03.764Z,18.60
2017-08-07T07:50:31.238Z,18.50
2017-08-07T07:52:58.708Z,18.60
2017-08-07T07:55:26.664Z,18.70
2017-08-07T07:57:54.244Z,18.80
2017-08-07T08:00:22.511Z,19.10
2017-08-07T08:02:50.013Z,19.10
2017-08-07T08:05:17.503Z,19.10
2017-08-07T08:07:44.965Z,19.20
2017-08-07T08:10:12.443Z,19.30
2017-08-07T08:12:40.689Z,19.40
2017-08-07T08:15:08.180Z,19.30
2017-08-07T08:17:36.571Z,19.40
2017-08-07T08:20:04.029Z,19.40
2017-08-07T08:22:31.489Z,19.50
2017-08-07T08:24:58.987Z,19.60
2017-08-07T08:27:26.453Z,19.60
2017-08-07T08:29:53.941Z,19.70
2017-08-07T08:32:22.159Z,19.80
2017-08-07T08:34:49.634Z,19.80
2017-08-07T08:37:17.218Z,19.90
2017-08-07T08:39:44.697Z,20.00
2017-08-07T08:42:12.917Z,20.00
2017-08-07T08:44:40.386Z,19.90
2017-08-07T08:47:07.854Z,20.10
2017-08-07T08:49:35.313Z,20.20
2017-08-07T08:52:02.780Z,20.30
2017-08-07T08:54:30.265Z,20.20
2017-08-07T08:56:57.741Z,20.30
2017-08-07T08:59:25.205Z,20.30
2017-08-07T09:01:52.681Z,20.40
2017-08-07T09:04:20.234Z,20.50
2017-08-07T09:06:47.801Z,20.50
2017-08-07T09:09:15.273Z,20.70
2017-08-07T09:11:42.760Z,20.90
2017-08-07T09:14:10.225Z,21.00
2017-08-07T09:16:37.809Z,21.00
2017-08-07T09:19:05.273Z,21.10
2017-08-07T09:21:32.737Z,21.10
2017-08-07T09:24:00.383Z,21.10
2017-08-07T09:26:27.845Z,21.20
2017-08-07T09:28:55.349Z,21.20
2017-08-07T09:31:23.585Z,21.30
2017-08-07T09:33:51.046Z,21.30
2017-08-07T09:36:18.686Z,21.40
2017-08-07T09:38:46.222Z,21.40
2017-08-07T09:41:13.697Z,21.50
2017-08-07T09:43:41.161Z,21.50
2017-08-07T09:46:09.445Z,21.60
2017-08-07T09:48:36.915Z,21.60
2017-08-07T09:51:04.373Z,21.80
2017-08-07T09:53:31.846Z,21.80
2017-08-07T09:55:59.304Z,21.90
2017-08-07T09:58:26.828Z,21.80
2017-08-07T10:00:54.317Z,21.90
2017-08-07T10:03:21.786Z,22.10
2017-08-07T10:05:50.029Z,22.40
2017-08-07T10:08:17.489Z,22.40
2017-08-07T10:10:44.970Z,22.30
2017-08-07T10:13:13.223Z,22.50
2017-08-07T10:15:40.693Z,22.50
2017-08-07T10:18:08.154Z,22.50
2017-08-07T10:20:36.434Z,22.50
2017-08-07T10:23:04.681Z,22.40
2017-08-07T10:25:32.221Z,22.40
2017-08-07T10:27:59.705Z,22.40
2017-08-07T10:30:27.166Z,22.40
2017-08-07T10:32:54.629Z,22.50
2017-08-07T10:35:22.479Z,22.60
2017-08-07T10:37:49.933Z,22.70
2017-08-07T10:40:17.419Z,22.80
2017-08-07T10:42:44.882Z,22.90
2017-08-07T10:45:13.117Z,22.90
2017-08-07T10:47:40.595Z,22.90
2017-08-07T10:50:08.072Z,23.00
2017-08-07T10:52:35.554Z,23.20
2017-08-07T10:55:03.020Z,23.30
2017-08-07T10:57:30.480Z,23.40
2017-08-07T10:59:57.942Z,23.40
2017-08-07T11:02:25.411Z,23.30
2017-08-07T11:04:52.884Z,23.20
2017-08-07T11:07:20.342Z,23.20
2017-08-07T11:09:47.865Z,23.20
2017-08-07T11:12:15.321Z,23.30
2017-08-07T11:14:42.801Z,23.20
2017-08-07T11:17:10.257Z,23.30
2017-08-07T11:19:37.719Z,23.40
2017-08-07T11:22:05.194Z,23.50
2017-08-07T11:24:32.663Z,23.70
2017-08-07T11:27:00.956Z,23.60
2017-08-07T11:29:28.420Z,23.60
2017-08-07T11:31:56.034Z,23.60
2017-08-07T11:34:23.559Z,23.90
2017-08-07T11:36:51.099Z,24.00
2017-08-07T11:39:18.564Z,24.10
2017-08-07T11:41:46.025Z,24.20
2017-08-07T11:44:13.605Z,24.10
2017-08-07T11:46:41.067Z,24.10
2017-08-07T11:49:08.594Z,24.20
2017-08-07T11:51:36.056Z,24.20
2017-08-07T11:54:03.821Z,24.40
2017-08-07T11:56:31.276Z,24.50
2017-08-07T11:58:58.753Z,24.50
2017-08-07T12:01:26.222Z,24.30
2017-08-07T12:03:53.739Z,24.40
2017-08-07T12:06:21.205Z,24.60
2017-08-07T12:08:48.665Z,24.80
2017-08-07T12:11:16.314Z,25.00
2017-08-07T12:13:43.826Z,25.20
2017-08-07T12:16:11.278Z,25.50
2017-08-07T12:18:38.761Z,25.60
2017-08-07T12:21:06.354Z,25.50
2017-08-07T12:23:33.893Z,25.30
2017-08-07T12:26:01.368Z,25.50
2017-08-07T12:28:28.842Z,25.80
2017-08-07T12:30:57.036Z,26.00
2017-08-07T12:33:24.505Z,25.90
2017-08-07T12:35:51.965Z,25.80
2017-08-07T12:38:20.189Z,25.50
2017-08-07T12:40:47.701Z,25.50
2017-08-07T12:43:15.190Z,25.40
2017-08-07T12:45:42.667Z,25.40
2017-08-07T12:48:10.147Z,25.70
2017-08-07T12:50:37.667Z,25.90
2017-08-07T12:53:05.134Z,26.10
2017-08-07T12:55:32.595Z,26.30
2017-08-07T12:58:00.079Z,26.30
2017-08-07T13:00:27.538Z,26.40
2017-08-07T13:02:55.006Z,26.60
2017-08-07T13:05:23.399Z,26.80
2017-08-07T13:07:51.633Z,27.00
2017-08-07T13:10:19.096Z,27.00
2017-08-07T13:12:46.642Z,27.10
2017-08-07T13:15:14.109Z,27.20
2017-08-07T13:17:41.777Z,27.60
2017-08-07T13:20:09.245Z,27.30
2017-08-07T13:22:36.722Z,27.30
2017-08-07T13:25:04.941Z,27.70
2017-08-07T13:27:32.428Z,27.60
2017-08-07T13:29:59.934Z,27.60
2017-08-07T13:32:27.409Z,27.90
2017-08-07T13:34:54.881Z,27.80
2017-08-07T13:37:22.370Z,27.90
2017-08-07T13:39:49.832Z,28.10
2017-08-07T13:42:18.070Z,27.50
2017-08-07T13:44:45.550Z,27.40
2017-08-07T13:47:13.009Z,27.40
2017-08-07T13:49:40.489Z,27.30
2017-08-07T13:52:07.952Z,27.40
2017-08-07T13:54:35.441Z,27.80
2017-08-07T13:57:03.651Z,27.60
2017-08-07T13:59:31.420Z,27.70
2017-08-07T14:01:58.906Z,27.90
2017-08-07T14:04:26.371Z,28.20
2017-08-07T14:06:53.862Z,28.50
2017-08-07T14:09:21.408Z,28.50
2017-08-07T14:12:01.910Z,28.30
2017-08-07T14:14:30.103Z,28.00
2017-08-07T14:16:57.743Z,27.70
2017-08-07T14:19:25.213Z,27.70
2017-08-07T14:21:53.443Z,26.80
2017-08-07T14:24:20.921Z,26.80
2017-08-07T14:26:49.101Z,26.80
2017-08-07T14:29:16.580Z,26.70
2017-08-07T14:31:44.287Z,27.00
2017-08-07T14:34:11.743Z,27.30
2017-08-07T14:36:39.225Z,27.70
2017-08-07T14:39:06.709Z,27.80
2017-08-07T14:41:34.385Z,27.40
2017-08-07T14:44:01.864Z,27.30
2017-08-07T14:46:29.333Z,27.00
2017-08-07T14:48:56.806Z,26.90
2017-08-07T14:51:24.343Z,27.10
2017-08-07T14:53:51.825Z,27.20
2017-08-07T14:56:19.296Z,27.30
2017-08-07T14:58:46.773Z,27.40
2017-08-07T15:01:15.017Z,27.10
2017-08-07T15:03:42.584Z,27.10
2017-08-07T15:06:10.070Z,26.80
2017-08-07T15:08:37.524Z,26.30
2017-08-07T15:11:05.012Z,26.10
2017-08-07T15:13:32.480Z,25.90
2017-08-07T15:15:59.981Z,25.90
2017-08-07T15:18:27.481Z,26.10
2017-08-07T15:20:54.938Z,26.30
2017-08-07T15:23:22.423Z,26.30
2017-08-07T15:25:49.952Z,26.30
2017-08-07T15:28:17.434Z,26.10
2017-08-07T15:30:44.928Z,25.90
2017-08-07T15:33:12.388Z,25.90
2017-08-07T15:35:39.853Z,26.00
2017-08-07T15:38:07.512Z,26.00
2017-08-07T15:40:35.749Z,25.80
2017-08-07T15:43:03.205Z,25.80
2017-08-07T15:45:30.677Z,25.70
2017-08-07T15:47:58.163Z,25.80
2017-08-07T15:50:25.743Z,25.80
2017-08-07T15:52:53.208Z,25.60
2017-08-07T15:55:20.670Z,25.50
2017-08-07T15:57:48.229Z,25.40
2017-08-07T16:00:15.792Z,25.40
2017-08-07T16:02:43.268Z,25.40
2017-08-07T16:05:10.732Z,25.40
2017-08-07T16:07:38.222Z,25.50
2017-08-07T16:10:05.748Z,25.60
2017-08-07T16:12:34.017Z,25.50
2017-08-07T16:15:01.613Z,25.50
2017-08-07T16:17:29.108Z,25.30
2017-08-07T16:19:56.578Z,25.40
2017-08-07T16:22:24.126Z,25.50
2017-08-07T16:24:51.589Z,25.40
2017-08-07T16:27:19.054Z,25.30
2017-08-07T16:29:58.353Z,25.30
2017-08-07T16:32:25.873Z,25.30
2017-08-07T16:34:54.133Z,25.20
2017-08-07T16:37:22.401Z,25.20
2017-08-07T16:39:49.877Z,25.20
2017-08-07T16:42:17.341Z,25.20
2017-08-07T16:44:44.813Z,25.20
2017-08-07T16:47:12.276Z,25.20
2017-08-07T16:49:39.861Z,25.20
2017-08-07T16:52:07.334Z,25.20
2017-08-07T16:54:34.807Z,25.10
2017-08-07T16:57:02.280Z,25.10
2017-08-07T16:59:30.521Z,25.10
2017-08-07T17:01:58.009Z,25.10
2017-08-07T17:04:25.533Z,25.10
2017-08-07T17:06:53.023Z,25.00
2017-08-07T17:09:20.486Z,24.90
2017-08-07T17:11:48.184Z,25.00
2017-08-07T17:14:15.665Z,24.90
2017-08-07T17:16:43.123Z,24.80
2017-08-07T17:19:10.599Z,24.60
2017-08-07T17:21:38.169Z,24.60
2017-08-07T17:24:06.425Z,24.80
2017-08-07T17:26:34.482Z,24.70
2017-08-07T17:29:01.937Z,24.80
2017-08-07T17:31:29.430Z,24.80
2017-08-07T17:33:57.760Z,24.80
2017-08-07T17:36:25.251Z,24.70
2017-08-07T17:38:52.720Z,24.80
2017-08-07T17:41:20.962Z,24.70
2017-08-07T17:43:48.477Z,24.60
2017-08-07T17:46:15.968Z,24.60
2017-08-07T17:48:43.433Z,24.60
2017-08-07T17:51:10.935Z,24.60
2017-08-07T17:53:38.657Z,24.50
2017-08-07T17:56:06.118Z,24.40
2017-08-07T17:58:33.573Z,24.50
2017-08-07T18:01:01.056Z,24.40
2017-08-07T18:03:29.274Z,24.40
2017-08-07T18:05:56.764Z,24.40
2017-08-07T18:08:24.249Z,24.40
2017-08-07T18:10:52.489Z,24.30
2017-08-07T18:13:19.969Z,24.30
2017-08-07T18:15:47.454Z,24.30
2017-08-07T18:18:14.940Z,24.30
2017-08-07T18:20:42.464Z,24.30
2017-08-07T18:23:10.715Z,24.10
2017-08-07T18:25:38.191Z,24.10
2017-08-07T18:28:06.414Z,24.00
2017-08-07T18:30:33.961Z,24.00
2017-08-07T18:33:01.423Z,23.90
2017-08-07T18:35:28.901Z,23.90
2017-08-07T18:37:56.376Z,23.90
2017-08-07T18:40:23.855Z,23.80
2017-08-07T18:42:52.685Z,23.70
2017-08-07T18:45:20.144Z,23.70
2017-08-07T18:47:48.366Z,23.70
2017-08-07T18:50:16.618Z,23.60
2017-08-07T18:52:44.122Z,23.50
2017-08-07T18:55:11.582Z,23.50
2017-08-07T18:57:39.047Z,23.40
2017-08-07T19:00:06.589Z,23.40
2017-08-07T19:02:34.226Z,23.40
2017-08-07T19:05:02.463Z,23.40
2017-08-07T19:07:29.937Z,23.30
2017-08-07T19:09:57.419Z,23.30
2017-08-07T19:12:25.654Z,23.20
2017-08-07T19:14:53.137Z,23.10
2017-08-07T19:17:20.641Z,23.10
2017-08-07T19:19:48.102Z,23.10
2017-08-07T19:22:15.579Z,23.00
2017-08-07T19:24:43.094Z,23.00
2017-08-07T19:27:11.157Z,22.90
2017-08-07T19:29:39.411Z,22.80
2017-08-07T19:32:06.902Z,22.80
2017-08-07T19:34:34.398Z,22.70
2017-08-07T19:37:01.863Z,22.70
2017-08-07T19:39:29.464Z,22.70
2017-08-07T19:41:57.710Z,22.50
2017-08-07T19:44:25.342Z,22.50
2017-08-07T19:46:52.884Z,22.60
2017-08-07T19:49:20.382Z,22.60
2017-08-07T19:51:47.867Z,22.60
2017-08-07T19:54:15.529Z,22.50
2017-08-07T19:56:43.004Z,22.40
2017-08-07T19:59:10.486Z,22.40
2017-08-07T20:01:37.979Z,22.40
2017-08-07T20:04:05.468Z,22.30
2017-08-07T20:06:32.998Z,22.30
2017-08-07T20:09:00.478Z,22.20
2017-08-07T20:11:29.089Z,22.20
2017-08-07T20:13:56.566Z,22.20
2017-08-07T20:16:24.022Z,22.10
2017-08-07T20:18:51.516Z,22.10
2017-08-07T20:21:33.786Z,22.00
2017-08-07T20:24:01.279Z,22.00
2017-08-07T20:26:29.519Z,22.00
2017-08-07T20:28:57.010Z,21.90
2017-08-07T20:31:25.280Z,22.00
2017-08-07T20:33:53.560Z,21.90
2017-08-07T20:36:21.796Z,22.00
2017-08-07T20:38:49.429Z,21.90
2017-08-07T20:41:16.906Z,22.00
2017-08-07T20:43:44.384Z,22.00
2017-08-07T20:46:11.909Z,21.90
2017-08-07T20:48:39.401Z,21.90
2017-08-07T20:51:06.878Z,21.90
2017-08-07T20:53:35.270Z,21.80
2017-08-07T20:56:03.585Z,21.80
2017-08-07T20:58:31.061Z,21.80
2017-08-07T21:00:58.563Z,21.80
2017-08-07T21:03:26.069Z,21.80
2017-08-07T21:05:53.774Z,21.80
2017-08-07T21:08:22.094Z,21.80
2017-08-07T21:10:49.561Z,21.80
2017-08-07T21:13:17.117Z,21.80
2017-08-07T21:15:44.698Z,21.80
2017-08-07T21:18:12.161Z,21.70
2017-08-07T21:20:39.842Z,21.70
2017-08-07T21:23:08.089Z,21.70
2017-08-07T21:25:35.580Z,21.70
2017-08-07T21:28:03.839Z,21.70
2017-08-07T21:30:31.526Z,21.70
2017-08-07T21:32:59.043Z,21.70
2017-08-07T21:35:26.782Z,21.50
2017-08-07T21:37:54.251Z,21.40
2017-08-07T21:40:21.846Z,21.30
2017-08-07T21:42:50.106Z,21.40
2017-08-07T21:45:17.585Z,21.40
2017-08-07T21:47:45.869Z,21.40
2017-08-07T21:50:13.337Z,21.40
2017-08-07T21:52:40.839Z,21.40
2017-08-07T21:55:08.318Z,21.30
2017-08-07T21:57:36.561Z,21.30
2017-08-07T22:00:04.037Z,21.30
2017-08-07T22:02:31.527Z,21.20
2017-08-07T22:04:58.984Z,21.20
2017-08-07T22:07:26.462Z,21.20
2017-08-07T22:09:54.038Z,21.10
2017-08-07T22:12:21.501Z,21.10
2017-08-07T22:14:48.969Z,21.10
2017-08-07T22:17:16.461Z,21.00
2017-08-07T22:19:44.847Z,21.00
2017-08-07T22:22:12.311Z,20.90
2017-08-07T22:24:39.797Z,20.90
2017-08-07T22:27:07.359Z,20.90
2017-08-07T22:29:34.856Z,20.90
2017-08-07T22:32:02.510Z,20.90
2017-08-07T22:34:29.991Z,20.90
2017-08-07T22:36:57.481Z,20.80
2017-08-07T22:39:25.340Z,20.80
2017-08-07T22:41:52.908Z,20.80
2017-08-07T22:44:20.381Z,20.80
2017-08-07T22:46:48.501Z,20.70
2017-08-07T22:49:15.993Z,20.60
2017-08-07T22:51:43.844Z,20.50
2017-08-07T22:54:13.937Z,20.50
2017-08-07T22:56:42.386Z,20.40
2017-08-07T22:59:09.875Z,20.40
2017-08-07T23:01:38.108Z,20.30
2017-08-07T23:04:05.589Z,20.20
2017-08-07T23:06:33.267Z,20.20
2017-08-07T23:09:01.509Z,20.20
2017-08-07T23:11:29.009Z,20.20
2017-08-07T23:13:57.270Z,20.10
2017-08-07T23:16:24.732Z,20.10
2017-08-07T23:18:53.032Z,20.10
2017-08-07T23:21:20.736Z,20.10
2017-08-07T23:23:48.221Z,20.10
2017-08-07T23:26:15.881Z,20.20
2017-08-07T23:28:44.143Z,20.20
2017-08-07T23:31:11.609Z,20.20
2017-08-07T23:33:39.094Z,20.20
2017-08-07T23:36:06.582Z,20.20
2017-08-07T23:38:34.046Z,20.20
2017-08-07T23:41:01.529Z,20.10
2017-08-07T23:43:29.241Z,20.10
2017-08-07T23:45:56.726Z,20.10
2017-08-07T23:48:24.193Z,20.10
2017-08-07T23:50:51.698Z,20.00
2017-08-07T23:53:19.184Z,20.00
2017-08-07T23:55:46.640Z,20.00
